sensor_id;sensor_type;location;lat;lon;timestamp;pressure;altitude;pressure_sealevel;temperature;humidity
75521;BME280;64102;48.628;9.002;2023-02-07T00:00:01;97750.28;;;-2.14;86.27
75521;BME280;64102;48.628;9.002;2023-02-07T00:02:27;97758.81;;;-2.22;82.71
75521;BME280;64102;48.628;9.002;2023-02-07T00:04:52;97764.88;;;-2.36;82.90
75521;BME280;64102;48.628;9.002;2023-02-07T00:07:17;97769.28;;;-2.50;84.66
75521;BME280;64102;48.628;9.002;2023-02-07T00:09:43;97777.78;;;-2.58;84.41
75521;BME280;64102;48.628;9.002;2023-02-07T00:12:08;97793.09;;;-2.72;84.80
75521;BME280;64102;48.628;9.002;2023-02-07T00:14:33;97786.41;;;-2.76;83.66
75521;BME280;64102;48.628;9.002;2023-02-07T00:16:59;97778.88;;;-2.81;83.37
75521;BME280;64102;48.628;9.002;2023-02-07T00:19:24;97781.53;;;-2.91;84.85
75521;BME280;64102;48.628;9.002;2023-02-07T00:21:49;97753.00;;;-2.99;84.43
75521;BME280;64102;48.628;9.002;2023-02-07T00:24:14;97772.47;;;-3.09;84.07
75521;BME280;64102;48.628;9.002;2023-02-07T00:26:40;97774.16;;;-3.11;84.75
75521;BME280;64102;48.628;9.002;2023-02-07T00:29:05;97768.31;;;-3.16;85.76
75521;BME280;64102;48.628;9.002;2023-02-07T00:31:32;97764.94;;;-3.17;85.70
75521;BME280;64102;48.628;9.002;2023-02-07T00:34:01;97775.97;;;-3.22;84.67
75521;BME280;64102;48.628;9.002;2023-02-07T00:36:28;97749.06;;;-3.26;86.27
75521;BME280;64102;48.628;9.002;2023-02-07T00:39:03;97748.22;;;-3.27;86.22
75521;BME280;64102;48.628;9.002;2023-02-07T00:41:29;97725.56;;;-3.31;85.01
75521;BME280;64102;48.628;9.002;2023-02-07T00:43:55;97713.78;;;-3.32;86.66
75521;BME280;64102;48.628;9.002;2023-02-07T00:46:20;97732.34;;;-3.36;85.75
75521;BME280;64102;48.628;9.002;2023-02-07T00:48:46;97725.66;;;-3.42;85.72
75521;BME280;64102;48.628;9.002;2023-02-07T00:51:12;97734.94;;;-3.44;85.16
75521;BME280;64102;48.628;9.002;2023-02-07T00:53:38;97745.03;;;-3.45;85.08
75521;BME280;64102;48.628;9.002;2023-02-07T00:56:04;97758.53;;;-3.51;84.69
75521;BME280;64102;48.628;9.002;2023-02-07T00:58:30;97745.09;;;-3.54;84.57
75521;BME280;64102;48.628;9.002;2023-02-07T01:00:55;97754.34;;;-3.53;85.42
75521;BME280;64102;48.628;9.002;2023-02-07T01:03:21;97750.16;;;-3.54;84.86
75521;BME280;64102;48.628;9.002;2023-02-07T01:05:46;97761.13;;;-3.62;86.14
75521;BME280;64102;48.628;9.002;2023-02-07T01:08:11;97763.66;;;-3.58;85.80
75521;BME280;64102;48.628;9.002;2023-02-07T01:10:42;97760.31;;;-3.62;85.77
75521;BME280;64102;48.628;9.002;2023-02-07T01:13:09;97748.53;;;-3.63;85.56
75521;BME280;64102;48.628;9.002;2023-02-07T01:15:38;97751.91;;;-3.63;86.40
75521;BME280;64102;48.628;9.002;2023-02-07T01:18:04;97743.53;;;-3.66;86.08
75521;BME280;64102;48.628;9.002;2023-02-07T01:20:30;97748.56;;;-3.66;86.14
75521;BME280;64102;48.628;9.002;2023-02-07T01:22:55;97754.44;;;-3.66;86.51
75521;BME280;64102;48.628;9.002;2023-02-07T01:25:21;97752.78;;;-3.67;86.84
75521;BME280;64102;48.628;9.002;2023-02-07T01:27:46;97751.94;;;-3.67;87.01
75521;BME280;64102;48.628;9.002;2023-02-07T01:30:12;97744.38;;;-3.69;86.12
75521;BME280;64102;48.628;9.002;2023-02-07T01:32:38;97731.81;;;-3.75;86.47
75521;BME280;64102;48.628;9.002;2023-02-07T01:35:03;97730.19;;;-3.82;85.69
75521;BME280;64102;48.628;9.002;2023-02-07T01:37:29;97718.41;;;-3.81;86.06
75521;BME280;64102;48.628;9.002;2023-02-07T01:39:54;97715.09;;;-3.85;85.51
75521;BME280;64102;48.628;9.002;2023-02-07T01:42:22;97726.84;;;-3.87;85.59
75521;BME280;64102;48.628;9.002;2023-02-07T01:45:15;97734.38;;;-3.81;86.29
75521;BME280;64102;48.628;9.002;2023-02-07T01:47:42;97725.09;;;-3.76;86.03
75521;BME280;64102;48.628;9.002;2023-02-07T01:50:08;97731.03;;;-3.80;86.63
75521;BME280;64102;48.628;9.002;2023-02-07T01:52:37;97728.47;;;-3.77;86.30
75521;BME280;64102;48.628;9.002;2023-02-07T01:55:08;97741.09;;;-3.77;86.46
75521;BME280;64102;48.628;9.002;2023-02-07T01:57:34;97744.41;;;-3.75;86.04
75521;BME280;64102;48.628;9.002;2023-02-07T02:00:00;97757.78;;;-3.65;87.18
75521;BME280;64102;48.628;9.002;2023-02-07T02:02:28;97760.25;;;-3.53;86.62
75521;BME280;64102;48.628;9.002;2023-02-07T02:04:56;97762.69;;;-3.44;85.61
75521;BME280;64102;48.628;9.002;2023-02-07T02:07:23;97756.69;;;-3.32;86.00
75521;BME280;64102;48.628;9.002;2023-02-07T02:09:49;97766.69;;;-3.25;85.86
75521;BME280;64102;48.628;9.002;2023-02-07T02:12:43;97759.97;;;-3.26;85.23
75521;BME280;64102;48.628;9.002;2023-02-07T02:15:27;97758.34;;;-3.30;84.63
75521;BME280;64102;48.628;9.002;2023-02-07T02:24:02;97771.75;;;-3.22;86.18
75521;BME280;64102;48.628;9.002;2023-02-07T02:29:24;97757.53;;;-3.33;85.46
75521;BME280;64102;48.628;9.002;2023-02-07T02:43:46;97761.31;;;-3.86;87.01
75521;BME280;64102;48.628;9.002;2023-02-07T02:46:19;97762.22;;;-3.93;85.64
75521;BME280;64102;48.628;9.002;2023-02-07T02:48:46;97741.28;;;-4.02;86.10
75521;BME280;64102;48.628;9.002;2023-02-07T02:51:12;97734.53;;;-4.02;86.65
75521;BME280;64102;48.628;9.002;2023-02-07T02:53:37;97744.69;;;-4.11;86.95
75521;BME280;64102;48.628;9.002;2023-02-07T02:56:24;97737.16;;;-4.16;86.04
75521;BME280;64102;48.628;9.002;2023-02-07T03:10:18;97749.00;;;-4.36;85.79
75521;BME280;64102;48.628;9.002;2023-02-07T03:16:47;97760.78;;;-4.36;84.92
75521;BME280;64102;48.628;9.002;2023-02-07T03:19:05;97763.34;;;-4.42;84.84
75521;BME280;64102;48.628;9.002;2023-02-07T03:21:36;97761.69;;;-4.48;84.84
75521;BME280;64102;48.628;9.002;2023-02-07T03:24:07;97771.75;;;-4.48;84.54
75521;BME280;64102;48.628;9.002;2023-02-07T03:26:34;97763.38;;;-4.55;84.68
75521;BME280;64102;48.628;9.002;2023-02-07T03:29:02;97776.81;;;-4.53;84.55
75521;BME280;64102;48.628;9.002;2023-02-07T03:31:30;97776.81;;;-4.59;85.09
75521;BME280;64102;48.628;9.002;2023-02-07T03:34:02;97778.50;;;-4.59;85.62
75521;BME280;64102;48.628;9.002;2023-02-07T03:36:38;97786.06;;;-4.59;84.18
75521;BME280;64102;48.628;9.002;2023-02-07T03:39:06;97790.28;;;-4.67;84.89
75521;BME280;64102;48.628;9.002;2023-02-07T03:41:41;97786.97;;;-4.75;85.35
75521;BME280;64102;48.628;9.002;2023-02-07T03:44:09;97786.13;;;-4.82;84.76
75521;BME280;64102;48.628;9.002;2023-02-07T03:46:38;97786.97;;;-4.78;85.56
75521;BME280;64102;48.628;9.002;2023-02-07T03:49:04;97790.38;;;-4.87;85.25
75521;BME280;64102;48.628;9.002;2023-02-07T03:51:31;97779.44;;;-4.93;86.19
75521;BME280;64102;48.628;9.002;2023-02-07T03:53:57;97787.88;;;-4.96;86.56
75521;BME280;64102;48.628;9.002;2023-02-07T03:56:22;97798.78;;;-5.02;87.12
75521;BME280;64102;48.628;9.002;2023-02-07T03:58:47;97790.38;;;-4.96;87.01
75521;BME280;64102;48.628;9.002;2023-02-07T04:01:13;97791.22;;;-4.97;87.52
75521;BME280;64102;48.628;9.002;2023-02-07T04:03:38;97796.25;;;-4.97;87.08
75521;BME280;64102;48.628;9.002;2023-02-07T04:06:03;97795.41;;;-4.99;87.27
75521;BME280;64102;48.628;9.002;2023-02-07T04:08:30;97806.34;;;-5.00;87.36
75521;BME280;64102;48.628;9.002;2023-02-07T04:11:00;97802.97;;;-5.07;87.34
75521;BME280;64102;48.628;9.002;2023-02-07T04:13:26;97797.13;;;-5.21;87.84
75521;BME280;64102;48.628;9.002;2023-02-07T04:15:51;97803.84;;;-5.32;89.18
75521;BME280;64102;48.628;9.002;2023-02-07T04:18:17;97803.84;;;-5.61;89.07
75521;BME280;64102;48.628;9.002;2023-02-07T04:20:42;97794.63;;;-5.72;89.49
75521;BME280;64102;48.628;9.002;2023-02-07T04:23:07;97798.78;;;-5.83;89.81
75521;BME280;64102;48.628;9.002;2023-02-07T04:25:33;97788.75;;;-5.93;89.61
75521;BME280;64102;48.628;9.002;2023-02-07T04:27:58;97797.06;;;-6.15;89.97
75521;BME280;64102;48.628;9.002;2023-02-07T04:30:23;97789.50;;;-6.35;90.75
75521;BME280;64102;48.628;9.002;2023-02-07T04:32:49;97786.09;;;-6.49;91.03
75521;BME280;64102;48.628;9.002;2023-02-07T04:35:14;97785.25;;;-6.52;91.31
75521;BME280;64102;48.628;9.002;2023-02-07T04:37:40;97792.66;;;-6.81;90.29
75521;BME280;64102;48.628;9.002;2023-02-07T04:40:05;97790.91;;;-6.91;91.95
75521;BME280;64102;48.628;9.002;2023-02-07T04:42:31;97784.28;;;-6.82;92.48
75521;BME280;64102;48.628;9.002;2023-02-07T04:44:56;97779.31;;;-6.71;92.53
75521;BME280;64102;48.628;9.002;2023-02-07T04:47:22;97791.06;;;-6.64;93.45
75521;BME280;64102;48.628;9.002;2023-02-07T04:49:47;97788.56;;;-6.58;93.10
75521;BME280;64102;48.628;9.002;2023-02-07T04:52:12;97789.50;;;-6.31;93.65
75521;BME280;64102;48.628;9.002;2023-02-07T04:54:38;97785.38;;;-6.02;93.19
75521;BME280;64102;48.628;9.002;2023-02-07T04:57:03;97784.56;;;-5.78;92.23
75521;BME280;64102;48.628;9.002;2023-02-07T04:59:29;97785.38;;;-5.61;90.93
75521;BME280;64102;48.628;9.002;2023-02-07T05:01:54;97784.56;;;-5.53;90.64
75521;BME280;64102;48.628;9.002;2023-02-07T05:04:20;97777.88;;;-5.49;90.69
75521;BME280;64102;48.628;9.002;2023-02-07T05:06:45;97780.38;;;-5.48;90.33
75521;BME280;64102;48.628;9.002;2023-02-07T05:09:11;97777.03;;;-5.50;90.25
75521;BME280;64102;48.628;9.002;2023-02-07T05:11:36;97780.38;;;-5.63;90.98
75521;BME280;64102;48.628;9.002;2023-02-07T05:14:02;97780.34;;;-5.66;90.84
75521;BME280;64102;48.628;9.002;2023-02-07T05:16:27;97784.56;;;-5.65;90.46
75521;BME280;64102;48.628;9.002;2023-02-07T05:18:52;97778.69;;;-5.67;90.11
75521;BME280;64102;48.628;9.002;2023-02-07T05:21:18;97780.38;;;-5.69;90.57
75521;BME280;64102;48.628;9.002;2023-02-07T05:23:43;97777.00;;;-5.75;90.97
75521;BME280;64102;48.628;9.002;2023-02-07T05:26:09;97778.69;;;-5.85;91.15
75521;BME280;64102;48.628;9.002;2023-02-07T05:28:34;97782.91;;;-5.90;90.94
75521;BME280;64102;48.628;9.002;2023-02-07T05:30:59;97785.41;;;-5.95;91.42
75521;BME280;64102;48.628;9.002;2023-02-07T05:33:25;97788.75;;;-5.96;91.31
75521;BME280;64102;48.628;9.002;2023-02-07T05:35:50;97792.91;;;-6.05;91.77
75521;BME280;64102;48.628;9.002;2023-02-07T05:38:17;97787.00;;;-6.19;91.60
75521;BME280;64102;48.628;9.002;2023-02-07T05:40:44;97782.81;;;-6.36;92.31
75521;BME280;64102;48.628;9.002;2023-02-07T05:43:10;97786.97;;;-6.39;92.42
75521;BME280;64102;48.628;9.002;2023-02-07T05:45:36;97795.34;;;-6.37;92.07
75521;BME280;64102;48.628;9.002;2023-02-07T05:48:02;97808.75;;;-6.40;92.14
75521;BME280;64102;48.628;9.002;2023-02-07T05:50:27;97812.13;;;-6.30;91.98
75521;BME280;64102;48.628;9.002;2023-02-07T05:52:53;97802.94;;;-6.19;92.48
75521;BME280;64102;48.628;9.002;2023-02-07T05:55:18;97806.31;;;-6.08;92.09
75521;BME280;64102;48.628;9.002;2023-02-07T05:57:44;97806.28;;;-6.11;91.88
75521;BME280;64102;48.628;9.002;2023-02-07T06:00:16;97802.13;;;-6.09;91.81
75521;BME280;64102;48.628;9.002;2023-02-07T06:02:41;97810.44;;;-6.20;91.58
75521;BME280;64102;48.628;9.002;2023-02-07T06:05:12;97796.22;;;-6.23;91.45
75521;BME280;64102;48.628;9.002;2023-02-07T06:07:38;97801.22;;;-6.24;91.44
75521;BME280;64102;48.628;9.002;2023-02-07T06:10:04;97810.47;;;-6.29;91.26
75521;BME280;64102;48.628;9.002;2023-02-07T06:12:30;97802.03;;;-6.36;91.76
75521;BME280;64102;48.628;9.002;2023-02-07T06:14:56;97799.53;;;-6.38;91.75
75521;BME280;64102;48.628;9.002;2023-02-07T06:17:21;97790.31;;;-6.37;91.59
75521;BME280;64102;48.628;9.002;2023-02-07T06:19:47;97791.16;;;-6.41;91.24
75521;BME280;64102;48.628;9.002;2023-02-07T06:22:13;97787.81;;;-6.43;91.40
75521;BME280;64102;48.628;9.002;2023-02-07T06:24:38;97786.91;;;-6.59;91.80
75521;BME280;64102;48.628;9.002;2023-02-07T06:27:04;97784.34;;;-6.71;92.17
75521;BME280;64102;48.628;9.002;2023-02-07T06:29:29;97781.81;;;-6.78;92.10
75521;BME280;64102;48.628;9.002;2023-02-07T06:31:54;97787.56;;;-6.95;92.23
75521;BME280;64102;48.628;9.002;2023-02-07T06:34:20;97787.56;;;-6.95;92.76
75521;BME280;64102;48.628;9.002;2023-02-07T06:36:45;97778.38;;;-6.91;92.63
75521;BME280;64102;48.628;9.002;2023-02-07T06:39:10;97775.06;;;-6.89;92.92
75521;BME280;64102;48.628;9.002;2023-02-07T06:41:36;97775.00;;;-6.99;92.64
75521;BME280;64102;48.628;9.002;2023-02-07T06:44:01;97789.84;;;-7.30;92.27
75521;BME280;64102;48.628;9.002;2023-02-07T06:46:27;97788.88;;;-7.50;92.79
75521;BME280;64102;48.628;9.002;2023-02-07T06:48:52;97793.88;;;-7.54;93.02
75521;BME280;64102;48.628;9.002;2023-02-07T06:51:17;97797.03;;;-7.72;92.49
75521;BME280;64102;48.628;9.002;2023-02-07T06:53:43;97802.03;;;-7.77;93.99
75521;BME280;64102;48.628;9.002;2023-02-07T06:56:08;97810.38;;;-7.75;93.71
75521;BME280;64102;48.628;9.002;2023-02-07T06:58:34;97822.13;;;-7.68;92.97
75521;BME280;64102;48.628;9.002;2023-02-07T07:01:03;97821.31;;;-7.68;94.36
75521;BME280;64102;48.628;9.002;2023-02-07T07:03:29;97821.28;;;-7.70;93.74
75521;BME280;64102;48.628;9.002;2023-02-07T07:05:58;97822.28;;;-7.49;94.63
75521;BME280;64102;48.628;9.002;2023-02-07T07:08:24;97824.91;;;-7.39;94.19
75521;BME280;64102;48.628;9.002;2023-02-07T07:10:50;97819.66;;;-6.25;92.75
75521;BME280;64102;48.628;9.002;2023-02-07T07:13:16;97813.91;;;-5.14;88.57
75521;BME280;64102;48.628;9.002;2023-02-07T07:15:41;97811.88;;;-4.09;83.25
75521;BME280;64102;48.628;9.002;2023-02-07T07:18:07;97813.00;;;-3.30;79.04
75521;BME280;64102;48.628;9.002;2023-02-07T07:20:32;97810.13;;;-2.89;75.27
75521;BME280;64102;48.628;9.002;2023-02-07T07:22:58;97813.06;;;-2.48;73.71
75521;BME280;64102;48.628;9.002;2023-02-07T07:25:23;97819.25;;;-2.01;72.62
75521;BME280;64102;48.628;9.002;2023-02-07T07:27:52;97819.00;;;-1.83;68.89
75521;BME280;64102;48.628;9.002;2023-02-07T07:30:17;97827.31;;;-1.18;67.29
75521;BME280;64102;48.628;9.002;2023-02-07T07:32:43;97827.31;;;-0.69;66.12
75521;BME280;64102;48.628;9.002;2023-02-07T07:35:08;97834.84;;;-0.22;63.68
75521;BME280;64102;48.628;9.002;2023-02-07T07:37:34;97826.75;;;0.03;60.95
75521;BME280;64102;48.628;9.002;2023-02-07T07:39:59;97838.47;;;0.48;61.15
75521;BME280;64102;48.628;9.002;2023-02-07T07:42:25;97832.72;;;1.11;60.82
75521;BME280;64102;48.628;9.002;2023-02-07T07:44:50;97821.91;;;1.35;58.23
75521;BME280;64102;48.628;9.002;2023-02-07T07:47:15;97816.28;;;1.87;56.77
75521;BME280;64102;48.628;9.002;2023-02-07T07:49:43;97812.31;;;2.62;53.61
75521;BME280;64102;48.628;9.002;2023-02-07T07:52:08;97809.59;;;3.44;51.76
75521;BME280;64102;48.628;9.002;2023-02-07T07:54:33;97816.00;;;4.25;48.90
75521;BME280;64102;48.628;9.002;2023-02-07T07:56:59;97808.78;;;4.80;47.31
75521;BME280;64102;48.628;9.002;2023-02-07T07:59:24;97814.38;;;5.10;46.42
75521;BME280;64102;48.628;9.002;2023-02-07T08:01:50;97809.00;;;4.95;46.61
75521;BME280;64102;48.628;9.002;2023-02-07T08:04:16;97811.66;;;4.50;47.68
75521;BME280;64102;48.628;9.002;2023-02-07T08:06:41;97804.44;;;4.60;45.99
75521;BME280;64102;48.628;9.002;2023-02-07T08:09:06;97810.00;;;5.33;45.89
75521;BME280;64102;48.628;9.002;2023-02-07T08:11:32;97801.81;;;5.84;43.53
75521;BME280;64102;48.628;9.002;2023-02-07T08:13:57;97810.25;;;5.48;44.44
75521;BME280;64102;48.628;9.002;2023-02-07T08:16:23;97816.66;;;4.54;45.63
75521;BME280;64102;48.628;9.002;2023-02-07T08:18:48;97821.16;;;4.47;46.91
75521;BME280;64102;48.628;9.002;2023-02-07T08:21:14;97814.84;;;5.99;44.73
75521;BME280;64102;48.628;9.002;2023-02-07T08:23:39;97826.31;;;6.29;43.36
75521;BME280;64102;48.628;9.002;2023-02-07T08:26:05;97829.34;;;6.92;40.53
75521;BME280;64102;48.628;9.002;2023-02-07T08:28:33;97842.66;;;6.45;41.41
75521;BME280;64102;48.628;9.002;2023-02-07T08:31:04;97840.47;;;7.44;40.22
75521;BME280;64102;48.628;9.002;2023-02-07T08:33:29;97832.09;;;7.90;39.43
75521;BME280;64102;48.628;9.002;2023-02-07T08:35:56;97841.69;;;8.52;38.61
75521;BME280;64102;48.628;9.002;2023-02-07T08:38:21;97841.88;;;8.17;38.59
75521;BME280;64102;48.628;9.002;2023-02-07T08:40:46;97843.38;;;7.88;37.11
75521;BME280;64102;48.628;9.002;2023-02-07T08:43:13;97852.41;;;7.62;38.97
75521;BME280;64102;48.628;9.002;2023-02-07T08:45:39;97860.25;;;7.76;37.62
75521;BME280;64102;48.628;9.002;2023-02-07T08:48:06;97849.78;;;6.39;40.00
75521;BME280;64102;48.628;9.002;2023-02-07T08:50:32;97856.00;;;6.52;40.75
75521;BME280;64102;48.628;9.002;2023-02-07T08:52:57;97860.44;;;6.86;41.02
75521;BME280;64102;48.628;9.002;2023-02-07T08:55:23;97857.91;;;7.37;38.88
75521;BME280;64102;48.628;9.002;2023-02-07T08:57:48;97859.78;;;6.99;38.81
75521;BME280;64102;48.628;9.002;2023-02-07T09:00:14;97863.09;;;7.01;40.34
75521;BME280;64102;48.628;9.002;2023-02-07T09:02:40;97877.72;;;5.87;40.88
75521;BME280;64102;48.628;9.002;2023-02-07T09:05:07;97876.09;;;6.05;42.44
75521;BME280;64102;48.628;9.002;2023-02-07T09:07:33;97878.31;;;6.12;41.84
75521;BME280;64102;48.628;9.002;2023-02-07T09:09:58;97882.16;;;6.41;42.53
75521;BME280;64102;48.628;9.002;2023-02-07T09:12:24;97872.78;;;6.21;41.75
75521;BME280;64102;48.628;9.002;2023-02-07T09:14:49;97864.59;;;6.13;41.47
75521;BME280;64102;48.628;9.002;2023-02-07T09:17:15;97866.56;;;5.48;42.93
75521;BME280;64102;48.628;9.002;2023-02-07T09:19:40;97856.56;;;6.02;43.49
75521;BME280;64102;48.628;9.002;2023-02-07T09:22:05;97860.34;;;5.13;43.93
75521;BME280;64102;48.628;9.002;2023-02-07T09:24:31;97850.03;;;5.75;42.86
75521;BME280;64102;48.628;9.002;2023-02-07T09:26:56;97835.16;;;4.82;45.08
75521;BME280;64102;48.628;9.002;2023-02-07T09:29:22;97825.41;;;4.46;44.32
75521;BME280;64102;48.628;9.002;2023-02-07T09:31:47;97825.72;;;5.24;45.71
75521;BME280;64102;48.628;9.002;2023-02-07T09:34:13;97835.84;;;5.88;44.25
75521;BME280;64102;48.628;9.002;2023-02-07T09:36:38;97834.59;;;5.76;43.40
75521;BME280;64102;48.628;9.002;2023-02-07T09:39:04;97836.97;;;5.40;44.72
75521;BME280;64102;48.628;9.002;2023-02-07T09:47:22;97860.28;;;4.26;45.19
75521;BME280;64102;48.628;9.002;2023-02-07T09:49:54;97863.78;;;5.12;45.23
75521;BME280;64102;48.628;9.002;2023-02-07T09:52:48;97865.38;;;5.14;43.87
75521;BME280;64102;48.628;9.002;2023-02-07T09:55:43;97867.50;;;5.25;44.31
75521;BME280;64102;48.628;9.002;2023-02-07T09:58:20;97870.44;;;6.36;42.51
75521;BME280;64102;48.628;9.002;2023-02-07T10:00:58;97865.16;;;6.57;42.77
75521;BME280;64102;48.628;9.002;2023-02-07T10:03:25;97876.09;;;6.80;40.12
75521;BME280;64102;48.628;9.002;2023-02-07T10:08:22;97881.59;;;6.72;42.08
75521;BME280;64102;48.628;9.002;2023-02-07T10:10:51;97888.94;;;6.61;42.53
75521;BME280;64102;48.628;9.002;2023-02-07T10:13:34;97885.34;;;6.65;41.36
75521;BME280;64102;48.628;9.002;2023-02-07T10:16:12;97880.97;;;6.48;41.38
75521;BME280;64102;48.628;9.002;2023-02-07T10:19:02;97883.97;;;7.98;39.63
75521;BME280;64102;48.628;9.002;2023-02-07T10:27:33;97873.28;;;7.03;41.76
75521;BME280;64102;48.628;9.002;2023-02-07T10:30:13;97880.94;;;7.22;39.71
75521;BME280;64102;48.628;9.002;2023-02-07T10:32:40;97877.72;;;7.35;40.10
75521;BME280;64102;48.628;9.002;2023-02-07T10:35:27;97878.97;;;5.77;43.35
75521;BME280;64102;48.628;9.002;2023-02-07T10:37:59;97879.09;;;5.74;43.71
75521;BME280;64102;48.628;9.002;2023-02-07T10:40:38;97876.81;;;6.27;42.52
75521;BME280;64102;48.628;9.002;2023-02-07T10:43:17;97875.22;;;7.51;39.52
75521;BME280;64102;48.628;9.002;2023-02-07T10:45:47;97884.66;;;8.50;38.81
75521;BME280;64102;48.628;9.002;2023-02-07T10:48:16;97883.69;;;7.53;37.97
75521;BME280;64102;48.628;9.002;2023-02-07T10:50:44;97880.25;;;8.37;37.05
75521;BME280;64102;48.628;9.002;2023-02-07T10:53:09;97891.22;;;8.56;36.75
75521;BME280;64102;48.628;9.002;2023-02-07T10:55:44;97887.16;;;8.99;35.62
75521;BME280;64102;48.628;9.002;2023-02-07T10:58:21;97876.94;;;9.43;35.43
75521;BME280;64102;48.628;9.002;2023-02-07T11:00:49;97881.75;;;8.24;36.60
75521;BME280;64102;48.628;9.002;2023-02-07T11:03:19;97890.16;;;8.91;35.88
75521;BME280;64102;48.628;9.002;2023-02-07T11:08:33;97888.16;;;8.96;34.56
75521;BME280;64102;48.628;9.002;2023-02-07T11:11:25;97889.31;;;8.91;34.63
75521;BME280;64102;48.628;9.002;2023-02-07T11:13:52;97889.25;;;8.61;37.17
75521;BME280;64102;48.628;9.002;2023-02-07T11:16:21;97892.94;;;7.21;37.49
75521;BME280;64102;48.628;9.002;2023-02-07T11:19:02;97890.38;;;8.07;35.33
75521;BME280;64102;48.628;9.002;2023-02-07T11:21:39;97883.06;;;7.65;41.16
75521;BME280;64102;48.628;9.002;2023-02-07T11:24:14;97885.50;;;7.85;36.03
75521;BME280;64102;48.628;9.002;2023-02-07T11:29:59;97888.28;;;7.81;36.64
75521;BME280;64102;48.628;9.002;2023-02-07T11:32:28;97885.81;;;8.12;37.37
75521;BME280;64102;48.628;9.002;2023-02-07T11:34:59;97883.22;;;7.79;36.65
75521;BME280;64102;48.628;9.002;2023-02-07T11:37:37;97886.41;;;8.34;36.52
75521;BME280;64102;48.628;9.002;2023-02-07T11:42:49;97884.34;;;8.57;35.40
75521;BME280;64102;48.628;9.002;2023-02-07T11:45:21;97878.56;;;7.00;39.21
75521;BME280;64102;48.628;9.002;2023-02-07T11:47:48;97878.69;;;6.61;39.41
75521;BME280;64102;48.628;9.002;2023-02-07T11:50:26;97879.88;;;6.72;42.56
75521;BME280;64102;48.628;9.002;2023-02-07T11:52:55;97874.78;;;8.10;39.01
75521;BME280;64102;48.628;9.002;2023-02-07T11:55:25;97887.25;;;7.14;40.92
75521;BME280;64102;48.628;9.002;2023-02-07T11:57:54;97887.47;;;7.63;39.30
75521;BME280;64102;48.628;9.002;2023-02-07T12:00:24;97881.84;;;7.55;38.06
75521;BME280;64102;48.628;9.002;2023-02-07T12:03:02;97891.28;;;7.20;38.49
75521;BME280;64102;48.628;9.002;2023-02-07T12:05:34;97890.97;;;6.73;41.49
75521;BME280;64102;48.628;9.002;2023-02-07T12:08:09;97884.69;;;7.14;37.61
75521;BME280;64102;48.628;9.002;2023-02-07T12:10:37;97881.78;;;6.86;39.55
75521;BME280;64102;48.628;9.002;2023-02-07T12:13:19;97880.69;;;6.92;42.41
75521;BME280;64102;48.628;9.002;2023-02-07T12:15:52;97881.41;;;7.30;39.55
75521;BME280;64102;48.628;9.002;2023-02-07T12:18:35;97880.06;;;8.07;38.19
75521;BME280;64102;48.628;9.002;2023-02-07T12:21:16;97882.84;;;7.70;37.57
75521;BME280;64102;48.628;9.002;2023-02-07T12:24:13;97881.16;;;7.86;36.37
75521;BME280;64102;48.628;9.002;2023-02-07T12:32:01;97875.22;;;7.51;39.12
75521;BME280;64102;48.628;9.002;2023-02-07T12:34:59;97877.94;;;8.15;38.14
75521;BME280;64102;48.628;9.002;2023-02-07T12:43:09;97878.53;;;10.32;32.60
75521;BME280;64102;48.628;9.002;2023-02-07T13:01:56;97857.88;;;10.60;31.89
75521;BME280;64102;48.628;9.002;2023-02-07T13:10:53;97839.06;;;11.12;29.81
75521;BME280;64102;48.628;9.002;2023-02-07T13:13:26;97832.16;;;10.59;30.08
75521;BME280;64102;48.628;9.002;2023-02-07T13:16:15;97834.38;;;10.51;29.58
75521;BME280;64102;48.628;9.002;2023-02-07T13:23:58;97832.25;;;8.98;34.02
75521;BME280;64102;48.628;9.002;2023-02-07T13:26:25;97827.81;;;8.55;37.82
75521;BME280;64102;48.628;9.002;2023-02-07T13:28:55;97838.63;;;9.07;34.89
75521;BME280;64102;48.628;9.002;2023-02-07T13:31:30;97840.00;;;7.70;34.76
75521;BME280;64102;48.628;9.002;2023-02-07T13:33:57;97835.13;;;8.14;36.09
75521;BME280;64102;48.628;9.002;2023-02-07T13:41:34;97835.00;;;8.95;33.51
75521;BME280;64102;48.628;9.002;2023-02-07T13:46:47;97836.72;;;8.17;35.33
75521;BME280;64102;48.628;9.002;2023-02-07T13:55:26;97844.38;;;7.68;35.79
75521;BME280;64102;48.628;9.002;2023-02-07T14:00:27;97843.84;;;6.38;38.53
75521;BME280;64102;48.628;9.002;2023-02-07T14:02:59;97849.72;;;6.59;40.39
75521;BME280;64102;48.628;9.002;2023-02-07T14:05:31;97854.16;;;5.38;41.78
75521;BME280;64102;48.628;9.002;2023-02-07T14:12:59;97839.09;;;7.19;37.23
75521;BME280;64102;48.628;9.002;2023-02-07T14:18:02;97827.69;;;7.77;35.51
75521;BME280;64102;48.628;9.002;2023-02-07T14:30:35;97836.31;;;7.24;34.87
75521;BME280;64102;48.628;9.002;2023-02-07T14:33:19;97832.47;;;7.50;33.78
75521;BME280;64102;48.628;9.002;2023-02-07T14:38:32;97832.50;;;6.97;36.40
75521;BME280;64102;48.628;9.002;2023-02-07T14:41:04;97838.28;;;6.10;39.25
75521;BME280;64102;48.628;9.002;2023-02-07T14:43:45;97842.94;;;5.41;40.46
75521;BME280;64102;48.628;9.002;2023-02-07T14:46:15;97837.56;;;5.88;40.12
75521;BME280;64102;48.628;9.002;2023-02-07T14:54:06;97827.81;;;5.75;41.83
75521;BME280;64102;48.628;9.002;2023-02-07T15:01:56;97837.34;;;5.31;43.55
75521;BME280;64102;48.628;9.002;2023-02-07T15:04:21;97839.63;;;4.97;39.28
75521;BME280;64102;48.628;9.002;2023-02-07T15:06:47;97836.94;;;5.00;40.47
75521;BME280;64102;48.628;9.002;2023-02-07T15:09:23;97852.84;;;4.65;42.11
75521;BME280;64102;48.628;9.002;2023-02-07T15:11:50;97847.97;;;4.14;39.97
75521;BME280;64102;48.628;9.002;2023-02-07T15:14:31;97856.13;;;4.00;44.37
75521;BME280;64102;48.628;9.002;2023-02-07T15:16:58;97863.72;;;4.25;45.19
75521;BME280;64102;48.628;9.002;2023-02-07T15:19:36;97854.25;;;4.28;41.56
75521;BME280;64102;48.628;9.002;2023-02-07T15:22:05;97855.69;;;4.12;43.31
75521;BME280;64102;48.628;9.002;2023-02-07T15:24:39;97856.53;;;4.13;45.18
75521;BME280;64102;48.628;9.002;2023-02-07T15:27:12;97859.63;;;3.74;43.96
75521;BME280;64102;48.628;9.002;2023-02-07T15:29:42;97860.88;;;2.85;46.14
75521;BME280;64102;48.628;9.002;2023-02-07T15:32:25;97864.50;;;2.21;50.27
75521;BME280;64102;48.628;9.002;2023-02-07T15:35:05;97858.44;;;1.96;49.23
75521;BME280;64102;48.628;9.002;2023-02-07T15:37:35;97855.25;;;1.57;49.38